Time;durP1;ratioP1;P1;durP2;ratioP2;P2;SDS_P1;SDS_P2;PMS_P1;PMS_P2;Temp;Humidity;BMP_temperature;BMP_pressure;BME280_temperature;BME280_humidity;BME280_pressure;Samples;Min_cycle;Max_cycle;Signal;HPM_P1;HPM_P2
2022/11/07 00:02:03;;;;;;;17.13;11.07;;;;;;;;;;5050496;28;20405;-61
2022/11/07 00:04:29;;;;;;;19.02;11.88;;;10.70;99.90;;;;;;5051367;28;20410;-61
2022/11/07 00:06:55;;;;;;;18.40;11.38;;;;;;;;;;5050250;28;20060;-61
2022/11/07 00:09:21;;;;;;;15.60;9.70;;;;;;;;;;5051429;28;20045;-61
2022/11/07 00:11:47;;;;;;;17.30;9.80;;;10.60;99.90;;;;;;5060847;28;20413;-61
2022/11/07 00:14:14;;;;;;;17.98;10.43;;;10.60;99.90;;;;;;5055687;28;20061;-61
2022/11/07 00:16:40;;;;;;;15.93;10.52;;;;;;;;;;5056821;28;20048;-60
2022/11/07 00:19:06;;;;;;;20.67;10.73;;;;;;;;;;5050823;28;20033;-60
2022/11/07 00:21:32;;;;;;;26.20;13.00;;;10.70;99.90;;;;;;5057776;28;20068;-60
2022/11/07 00:23:58;;;;;;;16.27;10.57;;;;;;;;;;5054542;28;20461;-60
2022/11/07 00:26:24;;;;;;;15.35;10.38;;;10.60;99.90;;;;;;5033126;28;20051;-60
2022/11/07 00:28:49;;;;;;;18.48;10.88;;;10.60;99.90;;;;;;5060877;28;20052;-60
2022/11/07 00:31:16;;;;;;;19.13;9.95;;;;;;;;;;5055533;28;20486;-60
2022/11/07 00:33:43;;;;;;;15.75;9.80;;;;;;;;;;5038836;28;20045;-60
2022/11/07 00:36:09;;;;;;;16.38;10.13;;;;;;;;;;5054969;28;20119;-60
2022/11/07 00:38:35;;;;;;;17.90;13.10;;;10.60;99.90;;;;;;5070690;22;20050;-60
2022/11/07 00:41:02;;;;;;;18.63;10.90;;;;;;;;;;5044135;28;20486;-59
2022/11/07 00:43:28;;;;;;;20.17;12.13;;;;;;;;;;5049777;28;20092;-58
2022/11/07 00:45:54;;;;;;;17.27;11.48;;;;;;;;;;5033005;28;20033;-58
2022/11/07 00:48:21;;;;;;;20.10;12.60;;;;;;;;;;5034841;28;20042;-58
2022/11/07 00:50:47;;;;;;;19.10;11.13;;;;;;;;;;5042354;28;20048;-58
2022/11/07 00:53:13;;;;;;;17.20;10.07;;;;;;;;;;5040466;28;20151;-57
2022/11/07 00:55:39;;;;;;;14.52;9.80;;;;;;;;;;5039539;28;20139;-58
2022/11/07 00:58:05;;;;;;;20.90;10.38;;;;;;;;;;5043821;28;20043;-58
2022/11/07 01:00:31;;;;;;;15.93;10.43;;;10.40;99.90;;;;;;5041905;28;20033;-58
2022/11/07 01:05:41;;;;;;;17.98;11.18;;;10.70;99.90;;;;;;5037198;28;20479;-58
2022/11/07 01:08:06;;;;;;;17.35;11.10;;;10.30;99.90;;;;;;5032631;28;20128;-56
2022/11/07 01:10:32;;;;;;;21.02;12.93;;;10.40;99.90;;;;;;5049510;28;20037;-57
2022/11/07 01:12:58;;;;;;;25.55;13.50;;;10.40;99.90;;;;;;5045034;28;20106;-57
2022/11/07 01:15:24;;;;;;;27.92;13.32;;;10.50;99.90;;;;;;5049660;28;20072;-58
2022/11/07 01:17:49;;;;;;;19.38;12.30;;;10.30;99.90;;;;;;5032236;28;20044;-58
2022/11/07 01:20:15;;;;;;;19.95;11.32;;;10.70;99.90;;;;;;5038665;28;20116;-58
2022/11/07 01:22:41;;;;;;;21.35;11.00;;;;;;;;;;5032870;28;20037;-58
2022/11/07 01:25:07;;;;;;;20.70;11.38;;;;;;;;;;5038028;28;20041;-58
2022/11/07 01:27:33;;;;;;;15.90;9.98;;;10.30;99.90;;;;;;5023633;28;20033;-57
2022/11/07 01:29:59;;;;;;;17.55;10.27;;;10.40;99.90;;;;;;5038539;28;20099;-57
2022/11/07 01:32:24;;;;;;;17.58;10.98;;;10.90;99.90;;;;;;5041428;28;20120;-57
2022/11/07 01:34:50;;;;;;;22.45;12.45;;;10.50;99.90;;;;;;5032096;28;20042;-55
2022/11/07 01:37:16;;;;;;;22.38;11.43;;;;;;;;;;5047502;28;20051;-55
2022/11/07 01:39:41;;;;;;;20.45;12.15;;;10.40;99.90;;;;;;5032535;28;20122;-56
2022/11/07 01:42:10;;;;;;;20.02;10.38;;;10.60;99.90;;;;;;5036210;28;20179;-57
2022/11/07 01:44:35;;;;;;;21.00;9.20;;;10.70;99.90;;;;;;5042144;28;20065;-57
2022/11/07 01:47:01;;;;;;;17.48;9.57;;;10.50;99.90;;;;;;5046567;28;20120;-56
2022/11/07 01:49:33;;;;;;;15.77;8.35;;;;;;;;;;5050490;28;20060;-57
2022/11/07 01:52:02;;;;;;;16.35;8.40;;;;;;;;;;5042375;28;20037;-57
2022/11/07 01:54:34;;;;;;;17.35;7.90;;;10.90;99.90;;;;;;5032371;28;20040;-56
2022/11/07 01:57:04;;;;;;;14.30;7.88;;;10.50;99.90;;;;;;5032632;28;20449;-57
2022/11/07 01:59:31;;;;;;;19.05;7.65;;;10.50;99.90;;;;;;5046955;28;20047;-57
2022/11/07 02:01:58;;;;;;;15.60;6.95;;;;;;;;;;5043081;28;20033;-57
2022/11/07 02:04:26;;;;;;;19.08;6.80;;;10.80;99.90;;;;;;5032750;28;20037;-57
2022/11/07 02:06:55;;;;;;;19.95;8.20;;;;;;;;;;5038137;28;20029;-57
2022/11/07 02:09:21;;;;;;;20.20;7.43;;;10.60;99.90;;;;;;5034512;28;20079;-57
2022/11/07 02:11:47;;;;;;;16.75;7.32;;;;;;;;;;5044234;28;20065;-56
2022/11/07 02:14:16;;;;;;;18.73;7.20;;;10.50;99.90;;;;;;5032433;28;20052;-57
2022/11/07 02:16:43;;;;;;;14.55;6.93;;;;;;;;;;5049579;28;20049;-57
2022/11/07 02:19:12;;;;;;;14.52;6.93;;;;;;;;;;5049815;28;20498;-58
2022/11/07 02:21:45;;;;;;;21.73;7.43;;;;;;;;;;5024507;28;20177;-58
2022/11/07 02:24:24;;;;;;;14.25;7.78;;;;;;;;;;5033652;28;20038;-58
2022/11/07 02:26:50;;;;;;;18.13;7.68;;;;;;;;;;5041358;28;20402;-57
2022/11/07 02:29:16;;;;;;;16.42;8.00;;;11.20;99.90;;;;;;5049824;28;20033;-57
2022/11/07 02:31:42;;;;;;;19.98;8.55;;;10.80;99.90;;;;;;5037797;28;20400;-57
2022/11/07 02:34:07;;;;;;;20.73;6.97;;;10.60;99.90;;;;;;5037453;28;20041;-56
2022/11/07 02:36:33;;;;;;;16.48;7.05;;;10.90;99.90;;;;;;5041406;28;20401;-57
2022/11/07 02:38:59;;;;;;;15.95;8.30;;;10.70;99.90;;;;;;5051904;28;20025;-57
2022/11/07 02:41:27;;;;;;;19.48;8.48;;;;;;;;;;5040644;28;20475;-58
2022/11/07 02:44:08;;;;;;;19.60;8.70;;;;;;;;;;5041910;28;20037;-58
2022/11/07 02:46:34;;;;;;;20.13;8.13;;;10.50;99.90;;;;;;5037803;28;20498;-58
2022/11/07 02:49:00;;;;;;;15.25;7.35;;;;;;;;;;5043605;28;20094;-57
2022/11/07 02:51:26;;;;;;;10.13;4.68;;;10.70;99.90;;;;;;5010567;28;20374;-58
2022/11/07 02:53:52;;;;;;;16.08;5.22;;;9.80;99.90;;;;;;5052933;28;20512;-59
2022/11/07 02:56:18;;;;;;;16.60;5.85;;;10.50;99.90;;;;;;5045097;28;20082;-57
2022/11/07 02:58:44;;;;;;;17.02;6.63;;;10.50;99.90;;;;;;5023966;28;20267;-58
2022/11/07 03:01:11;;;;;;;16.85;6.60;;;10.40;99.90;;;;;;5042017;28;20037;-58
2022/11/07 03:03:39;;;;;;;14.35;5.32;;;;;;;;;;5033741;28;20041;-58
2022/11/07 03:06:06;;;;;;;15.38;6.35;;;10.50;99.90;;;;;;5025743;28;20120;-57
2022/11/07 03:08:33;;;;;;;12.23;5.88;;;;;;;;;;5045050;28;20040;-57
2022/11/07 03:10:59;;;;;;;13.63;7.00;;;10.40;99.90;;;;;;5040401;28;20047;-56
2022/11/07 03:13:25;;;;;;;14.23;7.65;;;10.40;99.90;;;;;;5037212;28;20037;-56
2022/11/07 03:15:54;;;;;;;16.10;6.88;;;10.20;99.90;;;;;;5017064;28;20050;-57
2022/11/07 03:18:20;;;;;;;15.32;6.78;;;10.50;99.90;;;;;;5052195;28;20047;-57
2022/11/07 03:20:46;;;;;;;15.65;5.57;;;10.80;99.90;;;;;;5035335;28;20029;-57
2022/11/07 03:23:12;;;;;;;15.77;6.18;;;10.80;99.90;;;;;;5042104;28;20029;-57
2022/11/07 03:25:37;;;;;;;24.58;6.75;;;10.70;99.90;;;;;;5045118;28;20469;-57
2022/11/07 03:28:03;;;;;;;14.95;5.63;;;10.60;99.90;;;;;;5051890;28;20033;-56
2022/11/07 03:30:29;;;;;;;13.73;6.07;;;10.50;99.90;;;;;;5052301;28;20394;-57
2022/11/07 03:32:55;;;;;;;14.77;6.18;;;10.50;99.90;;;;;;5030988;28;20044;-57
2022/11/07 03:35:21;;;;;;;16.75;5.70;;;10.50;99.90;;;;;;5043082;28;20522;-57
2022/11/07 03:37:47;;;;;;;22.75;6.82;;;;;;;;;;5045209;28;20044;-57
2022/11/07 03:40:14;;;;;;;14.52;4.78;;;10.50;99.90;;;;;;5024264;28;20060;-56
2022/11/07 03:42:40;;;;;;;16.67;5.15;;;10.30;99.90;;;;;;5036213;28;20032;-56
2022/11/07 03:45:07;;;;;;;14.40;4.68;;;;;;;;;;5051955;28;20207;-56
2022/11/07 03:47:38;;;;;;;15.52;4.60;;;10.60;99.90;;;;;;5042777;28;20083;-57
2022/11/07 03:50:06;;;;;;;16.52;4.90;;;10.50;99.90;;;;;;5047057;28;20029;-57
2022/11/07 03:52:31;;;;;;;13.57;4.10;;;10.40;99.90;;;;;;5041737;28;20033;-56
2022/11/07 03:54:58;;;;;;;16.42;5.03;;;;;;;;;;5039779;28;20314;-58
2022/11/07 03:57:23;;;;;;;12.38;4.55;;;11.00;99.90;;;;;;5040942;28;20124;-57
2022/11/07 03:59:49;;;;;;;17.00;5.35;;;10.50;99.90;;;;;;5040386;28;20120;-57
2022/11/07 04:02:15;;;;;;;15.43;4.45;;;10.20;99.90;;;;;;5049757;28;20028;-57
2022/11/07 04:04:41;;;;;;;13.00;4.97;;;;;;;;;;5043862;28;20450;-57
2022/11/07 04:07:07;;;;;;;11.23;4.55;;;;;;;;;;5042860;28;20426;-56
2022/11/07 04:09:32;;;;;;;14.32;4.63;;;10.40;99.90;;;;;;5040835;28;20043;-55
2022/11/07 04:17:27;;;;;;;18.48;5.35;;;;;;;;;;5040656;28;20411;-57
2022/11/07 04:19:54;;;;;;;16.35;5.75;;;;;;;;;;5046403;28;20448;-57
2022/11/07 04:22:22;;;;;;;15.43;6.05;;;10.50;99.90;;;;;;5044372;28;20479;-57
2022/11/07 04:24:47;;;;;;;19.20;6.55;;;10.60;99.90;;;;;;5048531;28;20124;-57
2022/11/07 04:30:17;;;;;;;23.85;6.22;;;10.40;99.90;;;;;;5046872;28;20038;-57
2022/11/07 04:32:45;;;;;;;21.07;6.90;;;10.30;99.90;;;;;;5040935;28;20044;-56
2022/11/07 04:35:11;;;;;;;20.60;6.47;;;;;;;;;;5044927;28;20355;-57
2022/11/07 04:37:37;;;;;;;19.55;7.65;;;;;;;;;;5038674;28;20040;-59
2022/11/07 04:40:03;;;;;;;17.15;5.70;;;;;;;;;;5014423;28;20041;-58
2022/11/07 04:42:28;;;;;;;20.63;5.82;;;10.50;99.90;;;;;;5034751;28;20388;-58
2022/11/07 04:44:54;;;;;;;18.33;6.55;;;10.50;99.90;;;;;;5045361;28;20091;-58
2022/11/07 04:47:20;;;;;;;18.40;7.57;;;10.80;99.90;;;;;;5045882;28;20044;-57
2022/11/07 04:49:46;;;;;;;17.38;6.40;;;;;;;;;;5050718;28;20049;-57
2022/11/07 04:52:12;;;;;;;23.13;6.50;;;;;;;;;;5044993;28;20415;-57
2022/11/07 04:54:37;;;;;;;16.65;7.03;;;10.50;99.90;;;;;;5036258;28;20044;-57
2022/11/07 04:57:03;;;;;;;15.48;5.88;;;10.70;99.90;;;;;;5043163;28;20037;-57
2022/11/07 04:59:29;;;;;;;17.00;6.70;;;10.60;99.90;;;;;;5037337;28;20044;-57
2022/11/07 05:01:54;;;;;;;15.60;6.70;;;10.70;99.90;;;;;;5044986;28;20033;-57
2022/11/07 05:04:20;;;;;;;24.48;6.53;;;10.30;99.90;;;;;;5045258;28;20048;-56
2022/11/07 05:06:45;;;;;;;17.38;6.60;;;10.50;99.90;;;;;;5032040;28;20095;-57
2022/11/07 05:09:16;;;;;;;19.48;7.35;;;;;;;;;;5045308;28;20501;-57
2022/11/07 05:11:45;;;;;;;19.50;6.28;;;10.40;99.90;;;;;;5047238;28;20103;-57
2022/11/07 05:14:11;;;;;;;14.70;5.75;;;;;;;;;;5038099;28;20038;-57
2022/11/07 05:16:39;;;;;;;16.92;5.10;;;10.30;99.90;;;;;;5048495;28;20380;-57
2022/11/07 05:19:04;;;;;;;14.05;5.15;;;10.50;99.90;;;;;;5025928;28;20041;-57
2022/11/07 05:21:30;;;;;;;15.27;5.40;;;10.60;99.90;;;;;;5044847;28;20037;-56
2022/11/07 05:23:55;;;;;;;13.18;5.40;;;10.50;99.90;;;;;;5042267;28;20483;-57
2022/11/07 05:26:21;;;;;;;15.70;5.25;;;10.70;99.90;;;;;;5037645;28;20037;-57
2022/11/07 05:28:47;;;;;;;12.65;5.13;;;10.50;99.90;;;;;;5045747;28;20036;-57
2022/11/07 05:31:14;;;;;;;16.33;5.50;;;;;;;;;;5046564;28;20037;-57
2022/11/07 05:33:40;;;;;;;15.52;5.32;;;10.70;99.90;;;;;;5045230;28;20040;-57
2022/11/07 05:36:13;;;;;;;13.60;5.47;;;;;;;;;;5040917;28;20041;-59
2022/11/07 05:38:40;;;;;;;18.05;5.50;;;;;;;;;;5044036;28;20601;-57
2022/11/07 05:41:06;;;;;;;16.63;5.45;;;10.40;99.90;;;;;;5027719;28;20037;-57
2022/11/07 05:43:32;;;;;;;15.55;5.07;;;10.40;99.90;;;;;;5043729;28;20348;-57
2022/11/07 05:45:58;;;;;;;17.45;5.13;;;;;;;;;;5045442;28;20033;-55
2022/11/07 05:48:24;;;;;;;17.00;4.78;;;10.50;99.90;;;;;;5044919;28;20076;-57
2022/11/07 05:50:50;;;;;;;12.63;3.45;;;10.10;99.90;;;;;;5029507;28;20073;-57
2022/11/07 05:53:19;;;;;;;10.23;4.07;;;;;;;;;;5047223;28;20044;-57
2022/11/07 05:55:45;;;;;;;11.75;3.88;;;10.30;99.90;;;;;;5044024;28;20045;-57
2022/11/07 05:58:11;;;;;;;10.13;4.20;;;10.60;99.90;;;;;;5025794;28;20105;-57
2022/11/07 06:00:38;;;;;;;13.82;4.00;;;10.30;99.90;;;;;;5036594;28;20112;-57
2022/11/07 06:03:04;;;;;;;13.40;5.30;;;10.40;99.90;;;;;;5044213;28;20049;-56
2022/11/07 06:05:29;;;;;;;12.85;5.55;;;10.40;99.90;;;;;;5046072;28;20151;-56
2022/11/07 06:07:55;;;;;;;14.45;6.03;;;;;;;;;;5041346;28;20115;-57
2022/11/07 06:10:23;;;;;;;11.88;5.70;;;;;;;;;;5048470;28;20121;-56
2022/11/07 06:12:59;;;;;;;13.60;6.88;;;;;;;;;;5047469;28;20124;-57
2022/11/07 06:15:26;;;;;;;14.80;6.13;;;10.60;99.90;;;;;;5049931;28;20037;-57
2022/11/07 06:17:52;;;;;;;16.30;6.25;;;10.50;99.90;;;;;;5046971;28;20034;-57
2022/11/07 06:20:18;;;;;;;17.98;6.22;;;;;;;;;;5042521;28;20052;-57
2022/11/07 06:22:43;;;;;;;16.35;6.70;;;10.60;99.90;;;;;;5049554;28;20037;-57
2022/11/07 06:25:09;;;;;;;13.82;5.95;;;10.50;99.90;;;;;;5048772;28;20347;-56
2022/11/07 06:27:34;;;;;;;16.67;6.25;;;10.60;99.90;;;;;;5053093;28;20116;-57
2022/11/07 06:30:00;;;;;;;10.88;5.75;;;10.70;99.90;;;;;;5047873;28;20064;-57
2022/11/07 06:32:27;;;;;;;10.50;4.53;;;10.40;99.90;;;;;;5049493;28;20494;-57
2022/11/07 06:34:53;;;;;;;13.80;5.03;;;10.70;99.90;;;;;;5050565;28;20029;-57
2022/11/07 06:37:18;;;;;;;12.98;5.68;;;10.70;99.90;;;;;;5048032;28;20037;-57
2022/11/07 06:39:44;;;;;;;14.88;6.10;;;10.60;99.90;;;;;;5049278;28;20043;-57
2022/11/07 06:42:09;;;;;;;13.60;6.72;;;11.00;99.90;;;;;;5033017;28;20120;-57
2022/11/07 06:44:35;;;;;;;16.60;7.03;;;10.50;99.90;;;;;;5049034;28;20097;-57
2022/11/07 06:49:29;;;;;;;16.13;6.88;;;10.70;99.90;;;;;;5046965;28;20176;-57
2022/11/07 06:51:55;;;;;;;15.50;7.05;;;10.80;99.90;;;;;;5043424;28;20140;-57
2022/11/07 06:54:20;;;;;;;16.83;7.57;;;10.70;99.90;;;;;;5032829;28;20641;-56
2022/11/07 06:56:46;;;;;;;18.55;8.23;;;;;;;;;;5029529;28;20091;-58
2022/11/07 06:59:12;;;;;;;18.13;8.88;;;10.70;99.90;;;;;;5032210;28;20041;-56
2022/11/07 07:01:38;;;;;;;18.35;8.20;;;;;;;;;;5031717;28;20037;-57
2022/11/07 07:04:04;;;;;;;19.08;8.63;;;10.70;99.90;;;;;;5028045;28;20116;-55
2022/11/07 07:06:30;;;;;;;18.23;7.65;;;;;;;;;;5030369;28;20041;-57
2022/11/07 07:08:57;;;;;;;15.23;7.00;;;;;;;;;;5037318;28;20320;-54
2022/11/07 07:11:22;;;;;;;18.20;6.80;;;10.60;99.90;;;;;;5030958;28;20033;-56
2022/11/07 07:13:49;;;;;;;14.40;7.22;;;;;;;;;;5032139;28;20487;-56
2022/11/07 07:16:15;;;;;;;17.05;8.07;;;;;;;;;;5030627;28;20029;-57
2022/11/07 07:18:40;;;;;;;22.42;7.93;;;10.60;99.90;;;;;;5033858;28;20049;-56
2022/11/07 07:21:08;;;;;;;17.85;7.38;;;10.60;99.90;;;;;;5034330;28;20597;-57
2022/11/07 07:23:34;;;;;;;19.02;8.63;;;;;;;;;;5033061;28;20446;-55
2022/11/07 07:26:05;;;;;;;19.67;8.38;;;10.70;99.90;;;;;;5035629;28;20037;-57
2022/11/07 07:28:31;;;;;;;17.77;7.72;;;10.80;99.90;;;;;;5033685;28;20034;-56
2022/11/07 07:31:18;;;;;;;18.65;7.50;;;;;;;;;;5034368;28;20044;-55
2022/11/07 07:33:45;;;;;;;15.55;7.40;;;10.80;99.90;;;;;;5032566;28;20037;-56
2022/11/07 07:36:12;;;;;;;17.35;7.57;;;;;;;;;;5031842;28;20033;-54
2022/11/07 07:38:38;;;;;;;22.23;7.53;;;10.90;99.90;;;;;;5017072;28;20041;-54
2022/11/07 07:41:04;;;;;;;19.52;7.90;;;10.80;99.90;;;;;;5031691;28;20037;-57
2022/11/07 07:43:30;;;;;;;19.98;7.30;;;10.80;99.90;;;;;;5036999;28;20109;-56
2022/11/07 07:46:00;;;;;;;17.48;7.07;;;11.10;99.90;;;;;;5037390;28;20094;-57
2022/11/07 07:48:26;;;;;;;22.13;8.27;;;10.90;99.90;;;;;;5032220;28;20041;-55
2022/11/07 07:50:52;;;;;;;16.50;7.13;;;10.90;99.90;;;;;;5031649;28;20108;-57
2022/11/07 07:53:18;;;;;;;24.67;8.77;;;11.00;99.90;;;;;;5031688;28;20029;-56
2022/11/07 07:55:44;;;;;;;16.65;6.95;;;11.00;99.90;;;;;;5032623;28;20107;-57
2022/11/07 07:58:10;;;;;;;18.55;9.18;;;;;;;;;;5043061;28;20068;-56
2022/11/07 08:00:36;;;;;;;16.25;7.13;;;11.00;99.90;;;;;;5031747;28;20087;-57
2022/11/07 08:03:04;;;;;;;17.75;7.95;;;11.00;99.90;;;;;;5039436;28;20438;-57
2022/11/07 08:05:30;;;;;;;19.67;8.10;;;10.90;99.90;;;;;;5032874;28;20029;-58
2022/11/07 08:07:55;;;;;;;22.63;8.77;;;10.90;99.90;;;;;;5013767;28;20041;-58
2022/11/07 08:10:21;;;;;;;19.20;7.72;;;10.90;99.90;;;;;;5031435;28;20033;-58
2022/11/07 08:12:48;;;;;;;18.52;7.60;;;;;;;;;;5039803;28;20087;-57
2022/11/07 08:15:15;;;;;;;22.35;8.20;;;;;;;;;;5037914;28;20040;-57
2022/11/07 08:17:41;;;;;;;20.75;7.72;;;;;;;;;;5032421;28;20318;-58
2022/11/07 08:20:08;;;;;;;22.38;9.73;;;;;;;;;;5031442;28;20064;-57
2022/11/07 08:22:35;;;;;;;27.65;8.65;;;10.90;99.90;;;;;;5031084;28;20037;-56
2022/11/07 08:25:00;;;;;;;24.63;8.18;;;11.00;99.90;;;;;;5031183;28;20069;-58
2022/11/07 08:27:26;;;;;;;20.55;8.57;;;11.00;99.90;;;;;;5030910;28;20130;-56
2022/11/07 08:29:51;;;;;;;23.00;8.35;;;11.10;99.90;;;;;;5031016;28;20407;-56
2022/11/07 08:32:17;;;;;;;26.02;8.57;;;11.00;99.90;;;;;;5033454;28;20042;-58
2022/11/07 08:34:42;;;;;;;15.40;7.20;;;11.00;99.90;;;;;;5012154;28;20458;-56
2022/11/07 08:37:08;;;;;;;22.58;9.00;;;;;;;;;;5033311;28;20029;-57
2022/11/07 08:39:34;;;;;;;21.05;7.72;;;11.00;99.90;;;;;;5038133;28;20147;-56
2022/11/07 08:42:00;;;;;;;28.63;10.52;;;11.10;99.90;;;;;;5038421;28;20025;-58
2022/11/07 08:44:25;;;;;;;23.90;9.70;;;11.30;99.90;;;;;;5015709;28;20495;-58
2022/11/07 08:46:51;;;;;;;22.25;8.77;;;;;;;;;;5030043;28;20041;-58
2022/11/07 08:49:17;;;;;;;19.90;9.25;;;;;;;;;;5013157;28;20121;-58
2022/11/07 08:51:43;;;;;;;18.55;9.38;;;11.00;99.90;;;;;;5039498;28;20087;-58
2022/11/07 08:54:10;;;;;;;24.15;9.30;;;;;;;;;;5023176;28;20038;-58
2022/11/07 08:56:36;;;;;;;22.48;9.25;;;11.00;99.90;;;;;;5030231;28;20049;-58
2022/11/07 08:59:02;;;;;;;30.42;10.27;;;;;;;;;;5035192;28;20099;-58
2022/11/07 09:01:28;;;;;;;20.20;9.80;;;;;;;;;;5041280;28;20051;-58
2022/11/07 09:03:54;;;;;;;18.88;8.13;;;11.20;99.90;;;;;;5012909;28;20076;-58
2022/11/07 09:06:20;;;;;;;17.95;9.07;;;;;;;;;;5030380;28;20069;-58
2022/11/07 09:08:46;;;;;;;22.58;8.93;;;11.10;99.90;;;;;;5030025;28;20068;-58
2022/11/07 09:11:14;;;;;;;21.63;9.65;;;11.20;99.90;;;;;;5030755;28;20116;-58
2022/11/07 09:13:40;;;;;;;22.13;9.25;;;;;;;;;;5040422;28;20041;-58
2022/11/07 09:16:06;;;;;;;25.17;8.60;;;11.20;99.90;;;;;;5031358;28;20037;-57
2022/11/07 09:18:32;;;;;;;21.20;8.25;;;;;;;;;;5030512;28;20423;-56
2022/11/07 09:20:59;;;;;;;23.83;9.88;;;11.20;99.90;;;;;;5033202;28;20110;-57
2022/11/07 09:23:25;;;;;;;17.15;7.28;;;11.20;99.90;;;;;;5030372;28;20120;-56
2022/11/07 09:25:51;;;;;;;20.45;7.88;;;11.30;99.90;;;;;;5029978;28;20514;-57
2022/11/07 09:28:16;;;;;;;21.30;8.43;;;11.30;99.90;;;;;;5030019;28;20042;-57
2022/11/07 09:30:42;;;;;;;23.55;7.65;;;;;;;;;;5040316;28;20051;-55
2022/11/07 09:33:09;;;;;;;22.08;8.63;;;;;;;;;;5030988;28;20040;-58
2022/11/07 09:35:34;;;;;;;17.15;7.28;;;11.50;99.90;;;;;;5029816;28;20095;-57
2022/11/07 09:38:00;;;;;;;21.88;8.43;;;11.40;99.90;;;;;;5039308;28;20042;-58
2022/11/07 09:40:49;;;;;;;17.27;7.43;;;;;;;;;;5030368;28;20026;-57
2022/11/07 09:43:50;;;;;;;18.75;7.25;;;;;;;;;;5010097;28;20135;-58
2022/11/07 09:46:45;;;;;;;18.70;7.50;;;11.50;99.90;;;;;;4944982;28;20065;-58
2022/11/07 09:49:15;;;;;;;20.75;7.88;;;;;;;;;;5014151;28;20114;-58
2022/11/07 09:51:49;;;;;;;16.55;7.57;;;11.50;99.90;;;;;;5040404;28;20041;-54
2022/11/07 09:54:20;;;;;;;19.08;8.55;;;11.20;99.90;;;;;;5034018;28;20086;-58
2022/11/07 09:56:46;;;;;;;19.67;7.35;;;11.60;99.90;;;;;;5035309;28;20072;-57
2022/11/07 09:59:23;;;;;;;20.13;7.30;;;;;;;;;;5033965;28;20119;-58
2022/11/07 10:01:49;;;;;;;17.35;7.85;;;11.10;99.90;;;;;;5032968;28;20076;-57
2022/11/07 10:04:17;;;;;;;18.58;7.63;;;;;;;;;;5033950;28;20064;-58
2022/11/07 10:06:59;;;;;;;19.50;6.80;;;;;;;;;;5033611;28;20106;-58
2022/11/07 10:09:49;;;;;;;17.13;6.90;;;;;;;;;;5033684;28;20116;-58
2022/11/07 10:12:36;;;;;;;21.52;7.85;;;11.80;99.90;;;;;;5047170;28;20037;-58
2022/11/07 10:15:24;;;;;;;18.15;6.18;;;;;;;;;;5033702;28;20487;-58
2022/11/07 10:17:53;;;;;;;17.33;6.32;;;11.40;99.90;;;;;;5024676;28;20372;-58
2022/11/07 10:20:30;;;;;;;14.48;6.00;;;;;;;;;;5049268;28;20138;-57
2022/11/07 10:23:04;;;;;;;25.35;7.00;;;11.90;99.90;;;;;;5033512;28;20112;-58
2022/11/07 10:25:36;;;;;;;18.90;7.47;;;11.60;99.90;;;;;;5033596;28;20108;-57
2022/11/07 10:28:12;;;;;;;19.55;7.13;;;12.00;99.90;;;;;;5032648;28;20109;-57
2022/11/07 10:30:39;;;;;;;19.63;6.57;;;12.20;99.90;;;;;;5015895;28;20073;-57
2022/11/07 10:33:23;;;;;;;12.07;6.78;;;;;;;;;;5033038;28;20088;-56
2022/11/07 10:36:06;;;;;;;19.83;6.15;;;11.90;99.90;;;;;;5042714;28;20068;-57
2022/11/07 10:38:34;;;;;;;17.27;5.70;;;;;;;;;;5030133;28;20113;-57
2022/11/07 10:41:00;;;;;;;16.08;5.90;;;11.50;99.90;;;;;;5033276;28;20391;-57
2022/11/07 10:43:33;;;;;;;14.60;5.82;;;11.80;99.90;;;;;;5035127;28;20033;-57
2022/11/07 10:46:03;;;;;;;18.75;7.10;;;;;;;;;;5026120;28;20047;-57
2022/11/07 10:48:29;;;;;;;16.42;5.40;;;12.00;99.90;;;;;;5035485;28;20529;-57
2022/11/07 10:50:56;;;;;;;18.60;6.45;;;;;;;;;;5036903;28;20033;-57
2022/11/07 10:53:23;;;;;;;13.65;6.45;;;;;;;;;;5035368;28;20037;-57
2022/11/07 10:55:51;;;;;;;21.60;6.50;;;12.10;99.90;;;;;;5032719;28;20033;-57
2022/11/07 10:58:22;;;;;;;15.15;6.07;;;12.20;99.90;;;;;;5045025;28;20048;-57
2022/11/07 11:00:58;;;;;;;15.88;5.75;;;;;;;;;;5032930;28;20053;-57
2022/11/07 11:03:28;;;;;;;17.27;6.43;;;12.00;99.90;;;;;;5032907;28;20265;-57
2022/11/07 11:05:54;;;;;;;14.68;6.05;;;12.00;99.90;;;;;;5043551;28;20524;-58
2022/11/07 11:08:22;;;;;;;14.10;5.72;;;12.60;99.90;;;;;;5048437;28;20116;-56
2022/11/07 11:10:49;;;;;;;22.02;6.05;;;12.50;99.90;;;;;;5038067;28;20047;-56
2022/11/07 11:13:44;;;;;;;18.40;5.70;;;;;;;;;;5038359;28;20048;-57
2022/11/07 11:16:13;;;;;;;20.30;6.10;;;12.40;99.90;;;;;;5017763;28;20120;-57
2022/11/07 11:18:47;;;;;;;17.73;5.50;;;12.40;99.90;;;;;;5041833;28;20037;-57
2022/11/07 11:21:13;;;;;;;15.30;6.22;;;12.30;99.90;;;;;;5033924;28;20034;-57
2022/11/07 11:23:42;;;;;;;16.25;7.05;;;;;;;;;;5030507;28;20398;-57
2022/11/07 11:26:27;;;;;;;15.05;5.57;;;12.30;99.90;;;;;;5043161;28;20044;-57
2022/11/07 11:29:03;;;;;;;12.85;5.80;;;;;;;;;;5032226;28;20045;-57
2022/11/07 11:31:42;;;;;;;16.80;5.60;;;13.00;99.90;;;;;;5014469;28;20045;-56
2022/11/07 11:34:27;;;;;;;19.42;7.55;;;12.10;99.90;;;;;;5038281;28;20471;-57
2022/11/07 11:36:56;;;;;;;13.70;6.82;;;;;;;;;;5031542;28;20506;-57
2022/11/07 11:39:32;;;;;;;18.98;6.38;;;;;;;;;;5031954;28;20045;-55
2022/11/07 11:41:59;;;;;;;16.50;6.40;;;;;;;;;;5035917;28;20049;-57
2022/11/07 11:44:30;;;;;;;15.65;6.82;;;12.20;99.90;;;;;;5034417;28;20041;-57
2022/11/07 11:47:09;;;;;;;21.67;7.25;;;;;;;;;;5036802;28;20072;-57
2022/11/07 11:49:37;;;;;;;15.32;6.57;;;;;;;;;;5034861;28;20076;-57
2022/11/07 11:52:15;;;;;;;17.38;6.65;;;12.50;99.90;;;;;;5031779;28;20029;-57
2022/11/07 11:54:42;;;;;;;17.27;6.93;;;;;;;;;;5033298;28;20044;-56
2022/11/07 11:57:14;;;;;;;12.50;5.57;;;13.20;99.90;;;;;;5031286;28;20037;-57
2022/11/07 11:59:59;;;;;;;11.55;5.90;;;;;;;;;;5031616;28;20045;-55
2022/11/07 12:02:24;;;;;;;;;;;;;;;;;;5036362;28;20128;-57
2022/11/07 12:04:59;;;;;;;16.20;6.05;;;13.40;99.90;;;;;;5032693;28;19964;-57
2022/11/07 12:07:46;;;;;;;15.85;6.22;;;13.20;99.90;;;;;;5030326;28;20084;-57
2022/11/07 12:10:31;;;;;;;15.60;6.20;;;14.00;99.90;;;;;;5025282;28;20045;-56
2022/11/07 12:12:56;;;;;;;;;;;;;;;;;;5029258;28;20048;-57
2022/11/07 12:15:28;;;;;;;12.68;6.00;;;14.90;99.90;;;;;;5030481;28;19917;-57
2022/11/07 12:18:21;;;;;;;14.63;5.13;;;14.30;99.90;;;;;;5030917;28;20289;-57
2022/11/07 12:21:01;;;;;;;15.43;5.82;;;;;;;;;;5030754;28;20041;-57
2022/11/07 12:23:54;;;;;;;10.60;4.78;;;14.10;99.90;;;;;;5030995;28;20594;-56
2022/11/07 12:26:30;;;;;;;13.82;5.28;;;;;;;;;;5032628;28;20049;-57
2022/11/07 12:29:14;;;;;;;12.18;4.57;;;13.40;99.90;;;;;;5013281;28;20052;-56
2022/11/07 12:32:00;;;;;;;14.18;4.97;;;13.40;99.90;;;;;;5031033;28;20041;-57
2022/11/07 12:34:43;;;;;;;13.00;4.93;;;13.30;99.90;;;;;;5041292;28;20029;-57
2022/11/07 12:37:18;;;;;;;15.63;5.47;;;13.70;99.90;;;;;;5034382;28;20062;-56
2022/11/07 12:39:50;;;;;;;12.57;4.75;;;13.80;99.90;;;;;;5013269;28;20056;-57
2022/11/07 12:42:48;;;;;;;16.55;5.13;;;13.40;99.90;;;;;;5037842;28;20036;-57
2022/11/07 12:45:29;;;;;;;15.43;4.88;;;13.50;99.90;;;;;;5031717;28;20483;-58
2022/11/07 12:47:57;;;;;;;13.27;5.30;;;14.10;99.90;;;;;;5091563;22;20144;-61
2022/11/07 12:50:51;;;;;;;13.88;4.65;;;13.80;99.90;;;;;;5042192;28;20032;-61
2022/11/07 12:53:33;;;;;;;12.13;5.28;;;13.20;99.90;;;;;;5035384;28;20048;-61
2022/11/07 12:56:20;;;;;;;12.40;5.25;;;12.80;99.90;;;;;;5043823;28;20437;-61
2022/11/07 12:58:48;;;;;;;14.43;4.65;;;13.70;99.90;;;;;;5031456;28;20131;-61
2022/11/07 13:01:18;;;;;;;14.70;4.93;;;12.80;99.90;;;;;;5050851;28;20036;-60
2022/11/07 13:04:25;;;;;;;13.38;5.47;;;13.10;99.90;;;;;;5028597;28;20406;-60
2022/11/07 13:07:17;;;;;;;10.68;4.93;;;13.30;99.90;;;;;;5048588;28;20189;-60
2022/11/07 13:09:58;;;;;;;13.93;4.97;;;12.80;99.90;;;;;;5042956;28;20041;-60
2022/11/07 13:12:35;;;;;;;12.68;6.50;;;13.00;99.90;;;;;;5048016;28;20045;-60
2022/11/07 13:15:04;;;;;;;13.43;5.78;;;13.10;99.90;;;;;;5038027;28;20477;-59
2022/11/07 13:17:44;;;;;;;15.73;5.45;;;13.20;99.90;;;;;;5029743;28;20398;-60
2022/11/07 13:20:19;;;;;;;11.88;4.82;;;13.00;99.90;;;;;;5027992;28;20037;-60
2022/11/07 13:22:46;;;;;;;18.98;6.63;;;13.00;99.90;;;;;;5042876;28;20044;-60
2022/11/07 13:25:15;;;;;;;12.77;5.30;;;13.10;99.90;;;;;;5050018;28;20055;-60
2022/11/07 13:27:43;;;;;;;13.30;5.40;;;13.20;99.90;;;;;;5042888;28;20041;-60
2022/11/07 13:30:12;;;;;;;11.02;4.97;;;13.10;99.90;;;;;;5050301;28;20047;-60
2022/11/07 13:32:39;;;;;;;10.25;4.35;;;13.00;99.90;;;;;;5032884;28;20047;-60
2022/11/07 13:35:26;;;;;;;17.80;5.65;;;13.20;99.90;;;;;;5056593;28;20116;-60
2022/11/07 13:38:03;;;;;;;16.23;5.75;;;13.00;99.90;;;;;;5031269;28;20041;-60